Time;durP1;ratioP1;P1;durP2;ratioP2;P2;SDS_P1;SDS_P2;PMS_P1;PMS_P2;Temp;Humidity;BMP_temperature;BMP_pressure;BME280_temperature;BME280_humidity;BME280_pressure;Samples;Min_cycle;Max_cycle;Signal;HPM_P1;HPM_P2
2022/01/18 00:00:47;;;;;;;45.77;14.60;;;-1.90;99.90;;;;;;10456212;28;20532;-89
2022/01/18 00:05:50;;;;;;;52.40;16.63;;;-2.00;99.90;;;;;;10448483;28;20033;-85
2022/01/18 00:10:51;;;;;;;36.53;12.67;;;-2.00;99.90;;;;;;10456721;28;20442;-86
2022/01/18 00:26:10;;;;;;;42.13;11.63;;;-2.00;99.90;;;;;;10472445;28;20048;-84
2022/01/18 00:41:38;;;;;;;29.83;8.67;;;-1.90;99.90;;;;;;10425694;28;20041;-87
2022/01/18 00:46:39;;;;;;;24.93;9.53;;;-1.90;99.90;;;;;;10419399;28;20439;-87
2022/01/18 00:51:43;;;;;;;28.07;10.17;;;-1.90;99.90;;;;;;10432862;28;20029;-83
2022/01/18 00:56:44;;;;;;;32.50;9.37;;;-1.90;99.90;;;;;;10448626;28;20029;-85
2022/01/18 01:01:45;;;;;;;32.77;10.17;;;-1.90;99.90;;;;;;10441077;28;20119;-83
2022/01/18 01:06:46;;;;;;;28.97;7.43;;;-1.80;99.90;;;;;;10415770;28;20045;-86
2022/01/18 01:11:48;;;;;;;26.07;8.73;;;-1.70;99.90;;;;;;10429137;28;20393;-85
2022/01/18 01:16:59;;;;;;;21.53;8.80;;;-1.70;99.90;;;;;;10437302;28;20025;-85
2022/01/18 01:48:06;;;;;;;24.20;6.90;;;-1.70;99.90;;;;;;10454020;28;20053;-88
2022/01/18 01:53:07;;;;;;;26.47;8.23;;;-1.70;99.90;;;;;;10434539;28;20029;-84
2022/01/18 01:58:08;;;;;;;18.93;5.53;;;-1.70;99.90;;;;;;10456937;28;20039;-85
2022/01/18 02:03:09;;;;;;;27.83;6.37;;;-1.70;99.90;;;;;;10420775;28;20068;-84
2022/01/18 02:08:11;;;;;;;22.50;6.03;;;-1.70;99.90;;;;;;10430111;28;20049;-85
2022/01/18 02:13:13;;;;;;;30.97;6.23;;;-1.80;99.90;;;;;;10433385;28;20068;-86
2022/01/18 02:23:33;;;;;;;23.40;5.43;;;-1.70;99.90;;;;;;10450913;28;20049;-84
2022/01/18 02:28:35;;;;;;;16.50;5.47;;;-1.70;99.90;;;;;;10450659;28;20087;-87
2022/01/18 02:33:36;;;;;;;24.80;5.10;;;-1.80;99.90;;;;;;10432774;28;20124;-84
2022/01/18 02:38:37;;;;;;;21.37;5.60;;;-1.80;99.90;;;;;;10444332;28;20033;-85
2022/01/18 02:43:46;;;;;;;19.87;4.90;;;-1.80;99.90;;;;;;10449967;28;20065;-83
2022/01/18 02:48:48;;;;;;;18.57;6.40;;;-1.80;99.90;;;;;;10458763;28;20044;-84
2022/01/18 02:54:02;;;;;;;18.80;5.37;;;-1.80;99.90;;;;;;10474287;28;20472;-88
2022/01/18 02:59:31;;;;;;;26.47;5.77;;;-1.80;99.90;;;;;;10456146;28;20480;-84
2022/01/18 03:04:25;;;;;;;17.30;5.43;;;-1.90;99.90;;;;;;10466795;28;20408;-85
2022/01/18 03:09:26;;;;;;;16.20;3.77;;;-1.90;99.90;;;;;;10477126;28;20051;-85
2022/01/18 03:14:27;;;;;;;20.60;5.60;;;-1.90;99.90;;;;;;10431054;28;20155;-84
2022/01/18 03:19:28;;;;;;;22.27;4.63;;;-1.90;99.90;;;;;;10433193;28;20036;-85
2022/01/18 03:29:29;;;;;;;17.80;5.30;;;-1.90;99.90;;;;;;10424304;28;20033;-85
2022/01/18 03:34:30;;;;;;;21.57;5.80;;;-1.90;99.90;;;;;;10450825;28;20037;-84
2022/01/18 03:39:31;;;;;;;19.40;6.17;;;-1.90;99.90;;;;;;10448562;28;20025;-87
2022/01/18 03:44:31;;;;;;;14.33;4.83;;;-1.90;99.90;;;;;;10488159;28;20086;-85
2022/01/18 03:49:36;;;;;;;19.63;4.77;;;-1.90;99.90;;;;;;10452504;28;20091;-88
2022/01/18 03:54:42;;;;;;;18.63;5.83;;;-1.90;99.90;;;;;;10465905;28;20075;-91
2022/01/18 03:59:46;;;;;;;18.83;5.07;;;-1.90;99.90;;;;;;10467345;28;20044;-87
2022/01/18 04:04:47;;;;;;;19.93;4.73;;;-1.90;99.90;;;;;;10447684;28;20573;-85
2022/01/18 04:09:48;;;;;;;26.53;5.60;;;-1.80;99.90;;;;;;10474665;28;20036;-86
2022/01/18 04:14:49;;;;;;;37.97;9.90;;;-1.70;99.90;;;;;;10429941;28;20072;-89
2022/01/18 04:30:28;;;;;;;23.20;5.40;;;-1.40;99.90;;;;;;10429064;28;20041;-83
2022/01/18 04:35:29;;;;;;;23.10;5.60;;;-1.30;99.90;;;;;;10456342;28;20033;-87
2022/01/18 04:40:32;;;;;;;24.70;7.10;;;-1.30;99.90;;;;;;10459829;28;20441;-86
2022/01/18 04:50:54;;;;;;;24.90;5.67;;;-1.20;99.90;;;;;;10491885;28;20044;-83
2022/01/18 04:55:56;;;;;;;20.93;5.63;;;-1.20;99.90;;;;;;10468799;28;20473;-83
2022/01/18 05:01:00;;;;;;;28.27;5.23;;;-1.10;99.90;;;;;;10466500;28;20480;-82
2022/01/18 05:06:08;;;;;;;14.83;4.70;;;-1.10;99.90;;;;;;10450332;28;20033;-83
2022/01/18 05:11:14;;;;;;;23.40;6.17;;;-1.10;99.90;;;;;;10453110;28;20067;-83
2022/01/18 05:21:24;;;;;;;21.47;6.03;;;-1.00;99.90;;;;;;10453244;28;20055;-81
2022/01/18 05:26:27;;;;;;;26.40;6.87;;;-1.00;99.90;;;;;;10419349;28;20071;-84
2022/01/18 05:31:28;;;;;;;17.97;5.63;;;-1.00;99.90;;;;;;10451819;28;20530;-84
2022/01/18 05:36:29;;;;;;;21.53;7.57;;;-1.00;99.90;;;;;;10466203;28;20032;-83
2022/01/18 05:41:30;;;;;;;21.90;6.93;;;-1.00;99.90;;;;;;10448751;28;20086;-88
2022/01/18 05:46:31;;;;;;;16.10;5.70;;;-1.00;99.90;;;;;;10452569;28;20053;-85
2022/01/18 05:51:33;;;;;;;23.97;6.80;;;-1.00;99.90;;;;;;10434998;28;20061;-85
2022/01/18 05:56:34;;;;;;;15.33;5.73;;;-1.00;99.90;;;;;;10434668;28;20029;-84
2022/01/18 06:01:38;;;;;;;14.83;5.07;;;-1.00;99.90;;;;;;10452223;28;20083;-83
2022/01/18 06:06:53;;;;;;;29.50;8.20;;;-1.00;99.90;;;;;;10434101;28;20116;-84
2022/01/18 06:11:54;;;;;;;30.77;8.33;;;-1.00;99.90;;;;;;10451917;28;20136;-83
2022/01/18 06:16:54;;;;;;;23.73;6.50;;;-0.90;99.90;;;;;;10434061;28;20117;-84
2022/01/18 06:21:55;;;;;;;22.17;6.33;;;-1.00;99.90;;;;;;10451324;28;20029;-85
2022/01/18 06:26:56;;;;;;;27.07;7.53;;;-1.00;99.90;;;;;;10433600;28;20191;-85
2022/01/18 06:31:56;;;;;;;23.73;8.97;;;-1.00;99.90;;;;;;10451214;28;20029;-88
2022/01/18 06:36:57;;;;;;;19.17;6.00;;;-0.90;99.90;;;;;;10451372;28;20033;-85
2022/01/18 06:41:58;;;;;;;26.03;7.87;;;-0.90;99.90;;;;;;10433254;28;20436;-84
2022/01/18 06:46:58;;;;;;;19.80;7.10;;;-0.90;99.90;;;;;;10450419;28;20415;-84
2022/01/18 06:51:59;;;;;;;23.60;7.80;;;-0.80;99.90;;;;;;10449850;28;20041;-85
2022/01/18 06:57:00;;;;;;;23.70;6.40;;;-0.90;99.90;;;;;;10443365;28;20037;-81
2022/01/18 07:02:01;;;;;;;20.27;6.80;;;-0.80;99.90;;;;;;10423427;28;20021;-86
2022/01/18 07:07:03;;;;;;;21.40;6.77;;;-0.80;99.90;;;;;;10431624;28;20465;-87
2022/01/18 07:12:09;;;;;;;20.33;7.33;;;-0.70;99.90;;;;;;10449017;28;20171;-85
2022/01/18 07:17:10;;;;;;;22.73;7.50;;;-0.70;99.90;;;;;;10436995;28;20519;-89
2022/01/18 07:22:11;;;;;;;22.03;7.10;;;-0.60;99.90;;;;;;10476912;28;20040;-86
2022/01/18 07:27:14;;;;;;;25.33;7.37;;;-0.60;99.90;;;;;;10449590;28;20037;-83
2022/01/18 07:32:15;;;;;;;28.90;7.57;;;-0.60;99.90;;;;;;10449435;28;20025;-83
2022/01/18 07:37:15;;;;;;;18.70;5.87;;;-0.60;99.90;;;;;;10431849;28;20037;-87
2022/01/18 07:42:20;;;;;;;15.03;5.33;;;-0.50;99.90;;;;;;10450107;28;20033;-83
2022/01/18 07:47:21;;;;;;;22.92;6.50;;;-0.60;99.90;;;;;;10449447;28;20029;-87
2022/01/18 07:52:22;;;;;;;18.43;6.37;;;-0.50;99.90;;;;;;10426942;28;20496;-83
2022/01/18 07:57:23;;;;;;;19.10;5.97;;;-0.50;99.90;;;;;;10452268;28;20040;-85
2022/01/18 08:02:24;;;;;;;20.43;5.73;;;-0.50;99.90;;;;;;10451156;28;20028;-85
2022/01/18 08:07:25;;;;;;;19.07;6.20;;;-0.50;99.90;;;;;;10453950;28;20029;-85
2022/01/18 08:12:26;;;;;;;17.67;5.97;;;-0.40;99.90;;;;;;10440183;28;20065;-84
2022/01/18 08:17:26;;;;;;;18.87;5.97;;;-0.40;99.90;;;;;;10449055;28;20365;-87
2022/01/18 08:22:27;;;;;;;29.57;8.60;;;-0.30;99.90;;;;;;10455512;28;20044;-85
2022/01/18 08:27:28;;;;;;;14.10;5.40;;;-0.30;99.90;;;;;;10451755;28;20448;-85
2022/01/18 08:32:28;;;;;;;22.80;6.37;;;-0.20;99.90;;;;;;10454178;28;20488;-84
2022/01/18 08:37:29;;;;;;;15.60;5.80;;;-0.20;99.90;;;;;;10438044;28;20032;-88
2022/01/18 08:42:30;;;;;;;17.90;6.43;;;-0.20;99.90;;;;;;10453560;28;20041;-88
2022/01/18 08:47:30;;;;;;;18.77;6.83;;;-0.10;99.90;;;;;;10452108;28;20045;-86
2022/01/18 08:52:31;;;;;;;27.80;7.40;;;-0.10;99.90;;;;;;10452818;28;20039;-85
2022/01/18 08:57:32;;;;;;;19.60;7.23;;;0.00;99.90;;;;;;10436181;28;20102;-87
2022/01/18 09:02:32;;;;;;;18.80;7.27;;;0.10;99.90;;;;;;10436455;28;20024;-85
2022/01/18 09:07:36;;;;;;;17.77;6.53;;;0.10;99.90;;;;;;10437063;28;20044;-88
2022/01/18 09:12:37;;;;;;;26.10;7.43;;;0.10;99.90;;;;;;10453405;28;20763;-85
2022/01/18 09:17:40;;;;;;;25.17;7.13;;;0.10;99.90;;;;;;10454370;28;20021;-84
2022/01/18 09:22:43;;;;;;;14.83;5.83;;;0.20;99.90;;;;;;10455175;28;20028;-83
2022/01/18 09:27:44;;;;;;;16.90;7.33;;;0.10;99.90;;;;;;10453598;28;20061;-87
2022/01/18 09:32:46;;;;;;;22.13;7.90;;;0.10;99.90;;;;;;10485788;28;20621;-89
2022/01/18 09:37:48;;;;;;;25.57;7.53;;;0.10;99.90;;;;;;10494837;28;20056;-86
2022/01/18 09:42:57;;;;;;;22.27;8.20;;;0.10;99.90;;;;;;10494367;28;20028;-84
2022/01/18 09:47:59;;;;;;;23.97;8.43;;;0.10;99.90;;;;;;10494122;28;20115;-84
2022/01/18 09:53:01;;;;;;;25.00;7.50;;;0.10;99.90;;;;;;10476467;28;20111;-84
2022/01/18 09:58:07;;;;;;;25.33;8.53;;;0.10;99.90;;;;;;10494175;28;20032;-86
2022/01/18 10:03:24;;;;;;;20.50;8.57;;;0.10;99.90;;;;;;10493860;28;20028;-85
2022/01/18 10:08:25;;;;;;;20.23;8.13;;;0.20;99.90;;;;;;10493381;28;20036;-85
2022/01/18 10:13:28;;;;;;;21.63;8.80;;;0.20;99.90;;;;;;10492814;28;20059;-88
2022/01/18 10:18:49;;;;;;;27.77;8.27;;;0.30;99.90;;;;;;10492620;28;20029;-88
2022/01/18 10:23:50;;;;;;;33.67;10.33;;;0.40;99.90;;;;;;10493095;28;20033;-84
2022/01/18 10:29:04;;;;;;;26.07;10.50;;;0.50;99.90;;;;;;10492680;28;20357;-85
2022/01/18 10:34:25;;;;;;;25.83;10.17;;;0.60;99.90;;;;;;10492129;28;20476;-84
2022/01/18 10:40:02;;;;;;;28.60;10.70;;;0.70;99.90;;;;;;10474804;28;20114;-84
2022/01/18 10:45:14;;;;;;;32.17;11.50;;;0.70;99.90;;;;;;10453672;28;20043;-86
2022/01/18 10:50:17;;;;;;;25.13;10.07;;;0.80;99.90;;;;;;10491715;28;20036;-85
2022/01/18 10:55:22;;;;;;;30.43;11.73;;;0.90;99.90;;;;;;10492156;28;20104;-86
2022/01/18 11:00:25;;;;;;;33.47;11.23;;;0.90;99.90;;;;;;10491655;28;20387;-84
2022/01/18 11:05:28;;;;;;;28.90;11.90;;;0.90;99.90;;;;;;10491518;28;20028;-85
2022/01/18 11:10:38;;;;;;;27.03;10.00;;;1.00;99.90;;;;;;10487685;28;20485;-83
2022/01/18 11:15:45;;;;;;;26.47;9.80;;;1.00;99.90;;;;;;10491403;28;20396;-83
2022/01/18 11:20:48;;;;;;;29.03;10.77;;;1.00;99.90;;;;;;10491436;28;20072;-83
2022/01/18 11:25:51;;;;;;;30.00;9.27;;;1.10;99.90;;;;;;10491175;28;20147;-83
2022/01/18 11:30:52;;;;;;;29.50;9.80;;;1.10;99.90;;;;;;10490863;28;20048;-86
2022/01/18 11:36:06;;;;;;;22.57;9.70;;;1.10;99.90;;;;;;10491498;28;20094;-83
2022/01/18 11:41:34;;;;;;;20.70;9.27;;;1.10;99.90;;;;;;10498976;28;20020;-86
2022/01/18 11:46:40;;;;;;;27.27;10.07;;;1.10;99.90;;;;;;10499523;28;20060;-88
2022/01/18 11:51:55;;;;;;;26.90;10.23;;;1.10;99.90;;;;;;10499134;28;20476;-83
2022/01/18 11:56:55;;;;;;;27.37;9.20;;;1.10;99.90;;;;;;10498899;28;20064;-87
2022/01/18 12:01:59;;;;;;;25.27;10.07;;;1.10;99.90;;;;;;10498214;28;20032;-85
2022/01/18 12:07:00;;;;;;;32.27;11.47;;;1.10;99.90;;;;;;10498105;28;20031;-83
2022/01/18 12:12:00;;;;;;;19.33;10.20;;;1.00;99.90;;;;;;10497929;28;20373;-84
2022/01/18 12:17:15;;;;;;;29.97;11.47;;;0.90;99.90;;;;;;10465368;28;20033;-85
2022/01/18 12:22:16;;;;;;;35.57;11.27;;;1.00;99.90;;;;;;10434770;28;20037;-84
2022/01/18 12:27:27;;;;;;;33.03;11.20;;;1.10;99.90;;;;;;10462199;28;20033;-84
2022/01/18 12:32:41;;;;;;;32.30;13.70;;;1.00;99.90;;;;;;10452290;28;20079;-83
2022/01/18 12:37:44;;;;;;;32.63;11.47;;;0.90;99.90;;;;;;10455887;28;20021;-82
2022/01/18 12:48:08;;;;;;;27.63;10.87;;;1.00;99.90;;;;;;10495343;28;20511;-83
2022/01/18 12:53:26;;;;;;;27.23;11.63;;;1.10;99.90;;;;;;10496636;28;20267;-83
2022/01/18 12:58:28;;;;;;;25.70;11.00;;;1.10;99.90;;;;;;10488858;28;20369;-83
2022/01/18 13:03:35;;;;;;;26.13;11.20;;;1.10;99.90;;;;;;10455336;28;20098;-82
2022/01/18 13:08:43;;;;;;;29.60;9.13;;;1.10;99.90;;;;;;10451125;28;20045;-84
2022/01/18 13:13:52;;;;;;;24.53;11.40;;;1.10;99.90;;;;;;10454616;28;20486;-83
2022/01/18 13:29:42;;;;;;;24.30;9.83;;;1.00;99.90;;;;;;10459160;28;20451;-84
2022/01/18 13:34:56;;;;;;;23.27;10.03;;;0.90;99.90;;;;;;10475115;28;20107;-84
2022/01/18 13:40:03;;;;;;;47.30;18.80;;;0.80;99.90;;;;;;10494937;28;20102;-87
2022/01/18 13:45:26;;;;;;;29.97;10.70;;;0.80;99.90;;;;;;10440604;28;20384;-82
2022/01/18 13:50:36;;;;;;;28.53;11.30;;;0.60;99.90;;;;;;10454422;28;20566;-83
2022/01/18 13:55:48;;;;;;;45.03;16.60;;;0.60;99.90;;;;;;10434696;28;20032;-88
2022/01/18 14:00:49;;;;;;;68.00;29.83;;;0.50;99.90;;;;;;10460462;28;20028;-84
2022/01/18 14:05:50;;;;;;;45.33;21.70;;;0.60;99.90;;;;;;10484332;28;20504;-81
2022/01/18 14:11:24;;;;;;;60.57;26.63;;;0.60;99.90;;;;;;10454589;28;20032;-81
2022/01/18 14:16:32;;;;;;;52.60;21.17;;;0.60;99.90;;;;;;10463843;28;20059;-81
2022/01/18 14:21:42;;;;;;;90.83;33.80;;;0.60;99.90;;;;;;10492670;28;20097;-81
2022/01/18 14:26:52;;;;;;;45.20;20.00;;;0.50;99.90;;;;;;10492634;28;20107;-81
2022/01/18 14:32:03;;;;;;;40.93;18.23;;;0.50;99.90;;;;;;10491784;28;20108;-84
2022/01/18 14:37:03;;;;;;;29.00;12.97;;;0.40;99.90;;;;;;10492472;28;20025;-83
2022/01/18 14:42:06;;;;;;;32.53;14.20;;;0.40;99.90;;;;;;10491567;28;20548;-82
2022/01/18 14:47:25;;;;;;;54.87;24.77;;;0.30;99.90;;;;;;10492108;28;20044;-82
2022/01/18 14:52:27;;;;;;;45.30;21.20;;;0.30;99.90;;;;;;10491860;28;20025;-81
2022/01/18 14:57:28;;;;;;;67.90;28.03;;;0.30;99.90;;;;;;10473894;28;20062;-81
2022/01/18 15:02:30;;;;;;;53.00;24.30;;;0.30;99.90;;;;;;10491121;28;20021;-83
2022/01/18 15:07:31;;;;;;;39.73;14.17;;;0.30;99.90;;;;;;10491624;28;20733;-81
2022/01/18 15:12:32;;;;;;;25.27;10.93;;;0.20;99.90;;;;;;10490300;28;20049;-85
2022/01/18 15:17:34;;;;;;;57.67;22.87;;;0.10;99.90;;;;;;10490797;28;20023;-82
2022/01/18 15:22:35;;;;;;;30.17;12.10;;;0.10;99.90;;;;;;10491189;28;20036;-83
2022/01/18 15:27:36;;;;;;;27.63;12.50;;;0.10;99.90;;;;;;10490703;28;20177;-82
2022/01/18 15:32:42;;;;;;;37.83;14.63;;;0.10;99.90;;;;;;10468790;28;20500;-85
2022/01/18 15:37:44;;;;;;;40.37;19.53;;;0.10;99.90;;;;;;10449657;28;20025;-81
2022/01/18 15:42:44;;;;;;;40.07;15.73;;;0.10;99.90;;;;;;10448891;28;20025;-86
2022/01/18 15:47:45;;;;;;;44.83;19.47;;;0.00;99.90;;;;;;10431261;28;20435;-81
2022/01/18 15:52:46;;;;;;;34.67;12.37;;;-0.10;99.90;;;;;;10449386;28;20040;-82
2022/01/18 15:57:46;;;;;;;53.67;23.53;;;-0.10;99.90;;;;;;10431552;28;20043;-82
2022/01/18 16:02:47;;;;;;;39.63;15.27;;;-0.10;99.90;;;;;;10447974;28;20036;-85
2022/01/18 16:07:48;;;;;;;29.60;11.20;;;-0.10;99.90;;;;;;10448002;28;20049;-87
2022/01/18 16:12:48;;;;;;;23.50;8.37;;;-0.10;99.90;;;;;;10448713;28;20051;-82
2022/01/18 16:17:49;;;;;;;25.73;9.00;;;-0.20;99.90;;;;;;10419612;28;20405;-82
2022/01/18 16:22:51;;;;;;;27.03;11.23;;;-0.20;99.90;;;;;;10438738;28;20040;-82
2022/01/18 16:27:52;;;;;;;24.33;10.80;;;-0.20;99.90;;;;;;10456049;28;20087;-81
2022/01/18 16:32:54;;;;;;;51.07;20.47;;;-0.20;99.90;;;;;;10454314;28;20056;-82
2022/01/18 16:37:55;;;;;;;35.37;15.10;;;-0.20;99.90;;;;;;10450830;28;20025;-82
2022/01/18 16:42:56;;;;;;;46.20;19.97;;;-0.20;99.90;;;;;;10411615;28;20033;-81
2022/01/18 16:47:56;;;;;;;31.13;14.67;;;-0.10;99.90;;;;;;10453017;28;20048;-82
2022/01/18 16:52:58;;;;;;;22.63;10.93;;;-0.10;99.90;;;;;;10475344;28;20392;-82
2022/01/18 16:57:59;;;;;;;28.00;10.73;;;-0.10;99.90;;;;;;10451886;28;20132;-81
2022/01/18 17:02:59;;;;;;;22.60;7.73;;;-0.20;99.90;;;;;;10453361;28;20107;-82
2022/01/18 17:08:00;;;;;;;31.80;12.23;;;-0.20;99.90;;;;;;10452534;28;20047;-83
2022/01/18 17:13:01;;;;;;;34.33;12.60;;;-0.20;99.90;;;;;;10460857;28;20065;-81
2022/01/18 17:18:02;;;;;;;32.27;12.27;;;-0.30;99.90;;;;;;10452830;28;20711;-80
2022/01/18 17:23:06;;;;;;;35.47;13.07;;;-0.30;99.90;;;;;;10449021;28;20102;-80
2022/01/18 17:28:08;;;;;;;110.13;39.53;;;-0.30;99.90;;;;;;10447349;28;20492;-80
2022/01/18 17:33:10;;;;;;;57.50;19.27;;;-0.30;99.90;;;;;;10467038;28;20067;-81
2022/01/18 17:38:11;;;;;;;37.60;14.40;;;-0.30;99.90;;;;;;10412748;28;20052;-83
2022/01/18 17:43:16;;;;;;;82.03;30.67;;;-0.30;99.90;;;;;;10479052;28;20025;-81
2022/01/18 17:48:28;;;;;;;80.10;31.50;;;-0.30;99.90;;;;;;10452546;28;20052;-85
2022/01/18 17:53:29;;;;;;;92.50;30.63;;;-0.40;99.90;;;;;;10457955;28;20387;-84
2022/01/18 17:58:29;;;;;;;80.97;27.43;;;-0.40;99.90;;;;;;10434714;28;20032;-86
2022/01/18 18:03:33;;;;;;;91.63;34.87;;;-0.50;99.90;;;;;;10455917;28;20048;-86
2022/01/18 18:09:10;;;;;;;64.40;25.37;;;-0.50;99.90;;;;;;10428768;28;20048;-83
2022/01/18 18:14:45;;;;;;;102.03;38.65;;;-0.50;99.90;;;;;;10382983;28;20475;-84
2022/01/18 18:19:46;;;;;;;107.30;42.00;;;-0.50;99.90;;;;;;10434799;28;20021;-83
2022/01/18 18:25:01;;;;;;;126.03;50.83;;;-0.60;99.90;;;;;;10432936;28;20029;-83
2022/01/18 18:30:04;;;;;;;127.53;50.00;;;-0.70;99.90;;;;;;10427346;28;20041;-83
2022/01/18 18:35:05;;;;;;;105.27;40.13;;;-0.80;99.90;;;;;;10429491;28;20467;-88
2022/01/18 18:40:16;;;;;;;144.37;56.10;;;-0.90;99.90;;;;;;10469146;28;20029;-84
2022/01/18 18:45:44;;;;;;;118.17;43.80;;;-1.10;99.90;;;;;;10449556;28;20070;-83
2022/01/18 18:50:48;;;;;;;128.23;52.07;;;-1.20;99.90;;;;;;10448675;28;20053;-85
2022/01/18 18:55:49;;;;;;;132.37;53.63;;;-1.20;99.90;;;;;;10440182;28;20038;-83
2022/01/18 19:00:51;;;;;;;149.30;62.67;;;-1.30;99.90;;;;;;10434713;28;20040;-85
2022/01/18 19:05:55;;;;;;;160.90;67.60;;;-1.30;99.90;;;;;;10429122;28;20078;-85
2022/01/18 19:10:58;;;;;;;146.73;60.63;;;-1.40;99.90;;;;;;10436029;28;20369;-85
2022/01/18 19:16:01;;;;;;;134.67;54.40;;;-1.40;99.90;;;;;;10448520;28;20491;-83
2022/01/18 19:21:06;;;;;;;131.00;51.97;;;-1.30;99.90;;;;;;10431395;28;20025;-85
2022/01/18 19:26:08;;;;;;;437.40;149.37;;;-1.40;99.90;;;;;;10449279;28;20033;-82
2022/01/18 19:31:09;;;;;;;322.73;114.13;;;-1.30;99.90;;;;;;10430406;28;20032;-83
2022/01/18 19:36:10;;;;;;;447.43;153.10;;;-1.20;99.90;;;;;;10433033;28;20047;-84
2022/01/18 19:41:12;;;;;;;301.07;104.50;;;-1.20;99.90;;;;;;10425654;28;20026;-84
2022/01/18 19:46:12;;;;;;;203.50;78.70;;;-1.10;99.90;;;;;;10420593;28;20624;-83
2022/01/18 19:51:14;;;;;;;180.47;70.67;;;-1.10;99.90;;;;;;10449726;28;20119;-83
2022/01/18 19:56:15;;;;;;;340.13;115.23;;;-1.00;99.90;;;;;;10435793;28;20112;-81
2022/01/18 20:01:16;;;;;;;192.73;70.80;;;-0.90;99.90;;;;;;10437281;28;20815;-82
2022/01/18 20:06:17;;;;;;;188.00;73.37;;;-0.90;99.90;;;;;;10446886;28;20032;-81
2022/01/18 20:11:18;;;;;;;291.23;100.40;;;-0.90;99.90;;;;;;10468452;28;20038;-88
2022/01/18 20:16:18;;;;;;;284.27;110.23;;;-0.90;99.90;;;;;;10470710;28;20037;-83
2022/01/18 20:21:19;;;;;;;255.00;94.63;;;-1.00;99.90;;;;;;10455049;28;20044;-81
2022/01/18 20:26:22;;;;;;;365.53;121.87;;;-1.00;99.90;;;;;;10443964;28;20029;-81
2022/01/18 20:31:24;;;;;;;209.30;75.43;;;-1.00;99.90;;;;;;10463557;28;20028;-81
2022/01/18 20:36:25;;;;;;;105.70;40.27;;;-1.00;99.90;;;;;;10435448;28;20469;-83
2022/01/18 20:41:34;;;;;;;79.90;30.43;;;-0.90;99.90;;;;;;10443689;28;20029;-81
2022/01/18 20:46:35;;;;;;;85.53;32.53;;;-0.90;99.90;;;;;;10447274;28;20563;-81
2022/01/18 20:51:35;;;;;;;67.00;24.53;;;-0.90;99.90;;;;;;10431764;28;20048;-81
2022/01/18 20:56:37;;;;;;;50.27;19.57;;;-0.80;99.90;;;;;;10443606;28;20021;-83
2022/01/18 21:01:37;;;;;;;68.47;24.13;;;-0.80;99.90;;;;;;10441601;28;20025;-81
2022/01/18 21:06:38;;;;;;;60.80;21.10;;;-0.70;99.90;;;;;;10451858;28;20365;-82
2022/01/18 21:11:47;;;;;;;95.50;35.30;;;-0.60;99.90;;;;;;10464798;28;20051;-86
2022/01/18 21:16:49;;;;;;;128.87;47.37;;;-0.60;99.90;;;;;;10480817;28;20489;-81
2022/01/18 21:21:49;;;;;;;58.00;21.67;;;-0.50;99.90;;;;;;10453282;28;20519;-81
2022/01/18 21:26:50;;;;;;;41.20;14.67;;;-0.40;99.90;;;;;;10462546;28;20052;-81
2022/01/18 21:31:51;;;;;;;37.13;13.07;;;-0.40;99.90;;;;;;10457141;28;20082;-80
2022/01/18 21:36:51;;;;;;;38.17;15.17;;;-0.40;99.90;;;;;;10474207;28;20895;-84
2022/01/18 21:41:52;;;;;;;47.40;13.70;;;-0.30;99.90;;;;;;10484718;28;20046;-83
2022/01/18 21:46:53;;;;;;;104.57;35.23;;;-0.30;99.90;;;;;;10478120;28;20044;-86
2022/01/18 21:51:55;;;;;;;44.73;16.57;;;-0.20;99.90;;;;;;10451333;28;20381;-82
2022/01/18 21:56:55;;;;;;;43.93;14.83;;;-0.20;99.90;;;;;;10453025;28;20029;-82
2022/01/18 22:01:56;;;;;;;54.23;16.40;;;-0.20;99.90;;;;;;10464320;28;20028;-83
2022/01/18 22:06:56;;;;;;;53.70;19.10;;;-0.10;99.90;;;;;;10452248;28;20021;-80
2022/01/18 22:11:57;;;;;;;91.60;32.80;;;-0.10;99.90;;;;;;10451801;28;20056;-81
2022/01/18 22:16:58;;;;;;;105.20;37.90;;;-0.10;99.90;;;;;;10458260;28;20036;-82
2022/01/18 22:21:58;;;;;;;54.73;19.50;;;0.00;99.90;;;;;;10455055;28;20036;-85
2022/01/18 22:26:59;;;;;;;61.43;18.23;;;0.00;99.90;;;;;;10450448;28;20502;-80
2022/01/18 22:32:00;;;;;;;149.13;55.23;;;0.10;99.90;;;;;;10465337;28;20060;-81
2022/01/18 22:37:00;;;;;;;190.53;69.70;;;0.10;99.90;;;;;;10486023;28;20036;-83
2022/01/18 22:42:04;;;;;;;123.13;45.30;;;0.20;99.90;;;;;;10450422;28;20391;-81
2022/01/18 22:47:05;;;;;;;150.60;53.47;;;0.20;99.90;;;;;;10462775;28;20395;-82
2022/01/18 22:52:09;;;;;;;104.93;37.70;;;0.20;99.90;;;;;;10463354;28;20056;-81
2022/01/18 22:57:10;;;;;;;104.10;39.03;;;0.20;99.90;;;;;;10450374;28;20039;-81
2022/01/18 23:02:11;;;;;;;79.67;32.17;;;0.20;99.90;;;;;;10467353;28;20033;-84
2022/01/18 23:07:17;;;;;;;80.00;34.60;;;0.20;99.90;;;;;;10450744;28;20051;-80
2022/01/18 23:12:17;;;;;;;90.15;36.22;;;0.10;99.90;;;;;;10449256;28;20107;-84
2022/01/18 23:17:18;;;;;;;95.87;39.70;;;0.10;99.90;;;;;;10458228;28;20067;-80
2022/01/18 23:22:19;;;;;;;111.73;45.97;;;0.10;99.90;;;;;;10480205;28;20029;-81
2022/01/18 23:27:20;;;;;;;116.53;44.97;;;0.10;99.90;;;;;;10486840;28;20041;-81
2022/01/18 23:32:21;;;;;;;101.90;43.87;;;0.10;99.90;;;;;;10470382;28;20739;-81
2022/01/18 23:37:21;;;;;;;108.27;40.67;;;0.00;99.90;;;;;;10436429;28;20057;-83
2022/01/18 23:42:22;;;;;;;104.83;41.90;;;0.00;99.90;;;;;;10448680;28;20071;-81
2022/01/18 23:47:23;;;;;;;105.03;39.77;;;0.00;99.90;;;;;;10457814;28;20044;-82
2022/01/18 23:52:23;;;;;;;103.10;43.53;;;0.00;99.90;;;;;;10476442;28;20029;-83
2022/01/18 23:57:24;;;;;;;101.77;44.17;;;0.00;99.90;;;;;;10449615;28;20044;-87
